Time;durP1;ratioP1;P1;durP2;ratioP2;P2;SDS_P1;SDS_P2;PMS_P1;PMS_P2;Temp;Humidity;BMP_temperature;BMP_pressure;BME280_temperature;BME280_humidity;BME280_pressure;Samples;Min_cycle;Max_cycle;Signal;HPM_P1;HPM_P2
2022/06/19 00:01:42;;;;;;;11.05;5.57;;;;;;;;;;5014671;28;20053;-63
2022/06/19 00:04:09;;;;;;;12.77;4.97;;;;;;;;;;5015148;28;20117;-64
2022/06/19 00:06:35;;;;;;;8.95;5.10;;;;;;;;;;5014768;28;20030;-64
2022/06/19 00:09:03;;;;;;;9.20;5.15;;;;;;;;;;5014997;28;20464;-63
2022/06/19 00:11:29;;;;;;;10.95;4.53;;;;;;;;;;5014580;28;20045;-64
2022/06/19 00:13:55;;;;;;;12.13;5.10;;;;;;;;;;5014248;28;20563;-64
2022/06/19 00:16:21;;;;;;;11.32;4.50;;;;;;;;;;5014566;28;20038;-63
2022/06/19 00:18:47;;;;;;;8.63;4.68;;;;;;;;;;5014371;28;20097;-64
2022/06/19 00:21:16;;;;;;;8.13;4.68;;;;;;;;;;5014587;28;20037;-63
2022/06/19 00:23:42;;;;;;;7.35;4.35;;;;;;;;;;5014354;28;20120;-63
2022/06/19 00:26:08;;;;;;;13.32;4.82;;;;;;;;;;5014747;28;20053;-63
2022/06/19 00:28:34;;;;;;;11.73;4.75;;;;;;;;;;5014488;28;20505;-64
2022/06/19 00:31:00;;;;;;;10.48;4.90;;;;;;;;;;5014279;28;20028;-64
2022/06/19 00:33:27;;;;;;;10.13;4.95;;;;;;;;;;5014487;28;20030;-63
2022/06/19 00:35:53;;;;;;;7.95;4.85;;;;;;;;;;5013846;28;20033;-64
2022/06/19 00:38:19;;;;;;;10.55;4.72;;;;;;;;;;5014514;28;20018;-63
2022/06/19 00:40:45;;;;;;;11.52;5.75;;;;;;;;;;5014231;28;20034;-63
2022/06/19 00:43:11;;;;;;;9.90;4.95;;;;;;;;;;5013193;28;20041;-63
2022/06/19 00:45:39;;;;;;;11.05;4.82;;;;;;;;;;5014260;28;20022;-63
2022/06/19 00:48:16;;;;;;;14.23;5.47;;;;;;;;;;5014095;28;20032;-63
2022/06/19 00:50:43;;;;;;;14.90;5.47;;;;;;;;;;5014161;28;20041;-64
2022/06/19 00:53:12;;;;;;;10.30;5.28;;;;;;;;;;5014099;28;20030;-64
2022/06/19 00:55:45;;;;;;;9.70;4.80;;;;;;;;;;5014173;28;20034;-63
2022/06/19 00:58:26;;;;;;;9.20;4.90;;;;;;;;;;5014043;28;20033;-63
2022/06/19 01:00:54;;;;;;;8.95;5.07;;;;;;;;;;5013722;28;20098;-64
2022/06/19 01:03:26;;;;;;;10.43;4.35;;;;;;;;;;5013934;28;20034;-64
2022/06/19 01:05:53;;;;;;;6.68;3.85;;;;;;;;;;5013896;28;20022;-64
2022/06/19 01:08:19;;;;;;;7.70;4.43;;;;;;;;;;5013929;28;20121;-65
2022/06/19 01:10:47;;;;;;;9.10;4.53;;;;;;;;;;5013792;28;20026;-63
2022/06/19 01:13:14;;;;;;;8.00;4.15;;;;;;;;;;5013690;28;20025;-63
2022/06/19 01:15:40;;;;;;;9.10;4.35;;;;;;;;;;5013531;28;20022;-63
2022/06/19 01:18:07;;;;;;;7.18;3.78;;;;;;;;;;5013273;28;20037;-63
2022/06/19 01:20:34;;;;;;;10.65;4.80;;;;;;;;;;5013171;28;20037;-64
2022/06/19 01:23:05;;;;;;;7.65;4.22;;;;;;;;;;5013158;28;20084;-64
2022/06/19 01:25:35;;;;;;;8.43;4.00;;;;;;;;;;5013361;28;20026;-65
2022/06/19 01:30:50;;;;;;;6.07;3.95;;;;;;;;;;5013459;28;20044;-64
2022/06/19 01:33:18;;;;;;;10.23;4.40;;;;;;;;;;5013220;28;20069;-63
2022/06/19 01:35:45;;;;;;;7.45;4.05;;;;;;;;;;5013202;28;20076;-64
2022/06/19 01:38:13;;;;;;;8.90;4.03;;;;;;;;;;5013161;28;20373;-63
2022/06/19 01:40:41;;;;;;;10.65;4.32;;;;;;;;;;5012950;28;20037;-64
2022/06/19 01:43:07;;;;;;;8.88;3.88;;;;;;;;;;5012822;28;20038;-64
2022/06/19 01:45:33;;;;;;;6.47;3.88;;;;;;;;;;5013164;28;20030;-63
2022/06/19 01:48:00;;;;;;;7.47;3.58;;;;;;;;;;5013224;28;20026;-64
2022/06/19 01:50:28;;;;;;;8.23;4.18;;;;;;;;;;5012758;28;20041;-63
2022/06/19 01:52:59;;;;;;;9.30;3.90;;;;;;;;;;5012808;28;20108;-63
2022/06/19 01:55:28;;;;;;;9.05;4.20;;;;;;;;;;5013112;28;20112;-63
2022/06/19 01:57:56;;;;;;;9.75;4.28;;;;;;;;;;5012786;28;20041;-63
2022/06/19 02:00:23;;;;;;;5.95;4.15;;;;;;;;;;5012390;28;20088;-63
2022/06/19 02:02:56;;;;;;;9.73;4.35;;;;;;;;;;5014488;28;20049;-64
2022/06/19 02:05:22;;;;;;;9.07;4.10;;;;;;;;;;5013277;28;20030;-63
2022/06/19 02:07:48;;;;;;;9.88;4.65;;;;;;;;;;5012728;28;20057;-63
2022/06/19 02:10:15;;;;;;;8.50;4.20;;;;;;;;;;5012699;28;20030;-63
2022/06/19 02:12:41;;;;;;;10.48;3.83;;;;;;;;;;5012477;28;20030;-64
2022/06/19 02:15:09;;;;;;;9.27;4.10;;;;;;;;;;5012659;28;20105;-63
2022/06/19 02:17:42;;;;;;;10.20;4.38;;;;;;;;;;5012692;28;20493;-64
2022/06/19 02:20:09;;;;;;;7.60;3.80;;;;;;;;;;5012293;28;20474;-64
2022/06/19 02:22:35;;;;;;;9.48;3.90;;;;;;;;;;5012280;28;20064;-64
2022/06/19 02:25:02;;;;;;;8.20;4.20;;;;;;;;;;5012546;28;20030;-63
2022/06/19 02:27:30;;;;;;;9.45;3.85;;;;;;;;;;5012335;28;20014;-64
2022/06/19 02:29:56;;;;;;;10.05;3.97;;;;;;;;;;5012250;28;20072;-64
2022/06/19 02:32:26;;;;;;;11.85;3.78;;;;;;;;;;5012317;28;20080;-63
2022/06/19 02:34:52;;;;;;;9.32;4.00;;;;;;;;;;5012446;28;20040;-64
2022/06/19 02:37:23;;;;;;;11.32;4.60;;;;;;;;;;5012002;28;20073;-64
2022/06/19 02:40:07;;;;;;;6.30;3.90;;;;;;;;;;5012187;28;20092;-63
2022/06/19 02:42:33;;;;;;;6.10;3.88;;;;;;;;;;5011937;28;20084;-64
2022/06/19 02:45:01;;;;;;;8.45;4.03;;;;;;;;;;5011959;28;20026;-64
2022/06/19 02:47:28;;;;;;;8.77;3.70;;;;;;;;;;5012079;28;20028;-63
2022/06/19 02:49:54;;;;;;;8.75;3.83;;;;;;;;;;5011881;28;20553;-65
2022/06/19 02:52:20;;;;;;;8.63;4.22;;;;;;;;;;5011922;28;20030;-63
2022/06/19 02:54:47;;;;;;;6.78;3.83;;;;;;;;;;5012037;28;20108;-63
2022/06/19 02:57:13;;;;;;;8.77;3.75;;;;;;;;;;5011858;28;20037;-63
2022/06/19 02:59:40;;;;;;;7.40;4.18;;;;;;;;;;5011417;28;20025;-65
2022/06/19 03:02:06;;;;;;;5.80;3.97;;;;;;;;;;5011629;28;20401;-64
2022/06/19 03:04:36;;;;;;;7.75;3.80;;;;;;;;;;5011268;28;20069;-65
2022/06/19 03:07:03;;;;;;;7.68;3.70;;;;;;;;;;5011848;28;20033;-65
2022/06/19 03:09:29;;;;;;;9.45;3.67;;;;;;;;;;5011738;28;20091;-64
2022/06/19 03:11:55;;;;;;;5.85;3.75;;;;;;;;;;5011292;28;20038;-64
2022/06/19 03:14:21;;;;;;;7.63;3.90;;;;;;;;;;5011271;28;20025;-65
2022/06/19 03:16:47;;;;;;;7.80;4.15;;;;;;;;;;5010287;28;20418;-64
2022/06/19 03:19:14;;;;;;;8.82;4.03;;;;;;;;;;5011600;28;20046;-65
2022/06/19 03:21:40;;;;;;;7.15;3.90;;;;;;;;;;5011469;28;20067;-65
2022/06/19 03:24:06;;;;;;;8.25;4.05;;;;;;;;;;5011363;28;20144;-65
2022/06/19 03:26:32;;;;;;;7.38;3.60;;;;;;;;;;5011543;28;20026;-65
2022/06/19 03:28:59;;;;;;;7.95;3.90;;;;;;;;;;5011457;28;20033;-65
2022/06/19 03:31:26;;;;;;;9.45;4.72;;;;;;;;;;5011261;28;20038;-64
2022/06/19 03:33:52;;;;;;;6.15;3.90;;;;;;;;;;5011527;28;20042;-65
2022/06/19 03:36:18;;;;;;;7.63;3.60;;;;;;;;;;5011332;28;20033;-64
2022/06/19 03:38:44;;;;;;;5.22;3.60;;;;;;;;;;5011630;28;20038;-65
2022/06/19 03:41:11;;;;;;;6.30;3.50;;;;;;;;;;5011477;28;20018;-66
2022/06/19 03:43:37;;;;;;;5.65;3.85;;;;;;;;;;5010979;28;20489;-65
2022/06/19 03:46:07;;;;;;;7.30;3.85;;;;;;;;;;5011087;28;20481;-65
2022/06/19 03:48:33;;;;;;;9.27;3.83;;;;;;;;;;5011710;28;20485;-65
2022/06/19 03:50:59;;;;;;;6.40;3.33;;;;;;;;;;5011232;28;20474;-65
2022/06/19 03:53:25;;;;;;;5.47;3.50;;;;;;;;;;5011345;28;20056;-65
2022/06/19 03:55:52;;;;;;;5.65;3.50;;;;;;;;;;5011462;28;20084;-65
2022/06/19 03:58:18;;;;;;;5.40;3.55;;;;;;;;;;5011405;28;20128;-65
2022/06/19 04:00:44;;;;;;;12.40;4.05;;;;;;;;;;5011087;28;20576;-65
2022/06/19 04:03:10;;;;;;;6.22;3.75;;;;;;;;;;5011392;28;20489;-66
2022/06/19 04:05:36;;;;;;;8.48;3.80;;;;;;;;;;5011032;28;20084;-65
2022/06/19 04:08:03;;;;;;;7.85;4.00;;;;;;;;;;5011254;28;20034;-65
2022/06/19 04:10:29;;;;;;;9.43;4.10;;;;;;;;;;5011212;28;20420;-65
2022/06/19 04:12:56;;;;;;;7.55;3.80;;;;;;;;;;5010904;28;20030;-64
2022/06/19 04:15:22;;;;;;;4.93;3.65;;;;;;;;;;5010698;28;20034;-65
2022/06/19 04:17:48;;;;;;;5.63;3.70;;;;;;;;;;5013341;28;20029;-65
2022/06/19 04:20:14;;;;;;;7.97;4.65;;;;;;;;;;5014529;28;20034;-65
2022/06/19 04:22:40;;;;;;;10.25;5.60;;;;;;;;;;5014618;28;20113;-66
2022/06/19 04:25:07;;;;;;;11.63;7.18;;;;;;;;;;5014642;28;20026;-64
2022/06/19 04:27:34;;;;;;;12.18;8.25;;;;;;;;;;5014375;28;20121;-64
2022/06/19 04:30:00;;;;;;;8.27;6.32;;;;;;;;;;5014459;28;20049;-64
2022/06/19 04:32:26;;;;;;;8.68;5.43;;;;;;;;;;5014591;28;20500;-64
2022/06/19 04:34:52;;;;;;;8.25;5.07;;;;;;;;;;5014592;28;20085;-64
2022/06/19 04:37:18;;;;;;;8.68;4.45;;;;;;;;;;5014415;28;20053;-64
2022/06/19 04:39:44;;;;;;;7.07;3.90;;;;;;;;;;5014363;28;20119;-65
2022/06/19 04:42:10;;;;;;;5.45;4.07;;;;;;;;;;5014068;28;20141;-64
2022/06/19 04:44:36;;;;;;;11.60;4.13;;;;;;;;;;5014196;28;20026;-65
2022/06/19 04:47:04;;;;;;;9.80;5.35;;;;;;;;;;5014274;28;20030;-64
2022/06/19 04:49:30;;;;;;;8.20;4.15;;;;;;;;;;5014159;28;20033;-65
2022/06/19 04:51:56;;;;;;;8.50;3.53;;;;;;;;;;5014344;28;20022;-64
2022/06/19 04:54:22;;;;;;;10.02;4.50;;;;;;;;;;5014097;28;20034;-65
2022/06/19 04:56:48;;;;;;;7.20;3.90;;;;;;;;;;5014240;28;20045;-66
2022/06/19 04:59:14;;;;;;;6.03;3.60;;;;;;;;;;5014190;28;20030;-65
2022/06/19 05:01:41;;;;;;;6.93;3.75;;;;;;;;;;5013709;28;20121;-65
2022/06/19 05:04:08;;;;;;;6.00;3.63;;;;;;;;;;5013686;28;20092;-64
2022/06/19 05:06:34;;;;;;;7.82;4.10;;;;;;;;;;5014170;28;20075;-65
2022/06/19 05:09:00;;;;;;;6.70;5.00;;;;;;;;;;5013773;28;20078;-64
2022/06/19 05:11:28;;;;;;;9.27;5.70;;;;;;;;;;5013725;28;20022;-65
2022/06/19 05:13:55;;;;;;;15.05;9.52;;;;;;;;;;5013625;28;20022;-64
2022/06/19 05:16:21;;;;;;;11.25;9.20;;;;;;;;;;5013506;28;20026;-65
2022/06/19 05:18:48;;;;;;;8.82;5.25;;;;;;;;;;5013718;28;20022;-65
2022/06/19 05:21:14;;;;;;;9.32;5.25;;;;;;;;;;5013344;28;20053;-65
2022/06/19 05:23:42;;;;;;;8.20;4.38;;;;;;;;;;5013513;28;20049;-65
2022/06/19 05:26:13;;;;;;;13.43;4.65;;;;;;;;;;5013387;28;20018;-65
2022/06/19 05:28:39;;;;;;;9.55;4.00;;;;;;;;;;5012715;28;20540;-65
2022/06/19 05:31:05;;;;;;;5.47;3.20;;;;;;;;;;5013301;28;20041;-65
2022/06/19 05:33:32;;;;;;;6.82;3.33;;;;;;;;;;5013320;28;20037;-65
2022/06/19 05:35:58;;;;;;;5.78;3.40;;;;;;;;;;5013385;28;20022;-65
2022/06/19 05:38:25;;;;;;;5.28;3.40;;;;;;;;;;5012935;28;20045;-65
2022/06/19 05:40:51;;;;;;;5.70;3.40;;;;;;;;;;5012971;28;20076;-65
2022/06/19 05:43:18;;;;;;;5.68;3.58;;;;;;;;;;5013068;28;20068;-64
2022/06/19 05:45:51;;;;;;;6.03;3.70;;;;;;;;;;5013022;28;20028;-64
2022/06/19 05:48:18;;;;;;;7.13;3.95;;;;;;;;;;5013084;28;20499;-64
2022/06/19 05:50:44;;;;;;;9.00;3.75;;;;;;;;;;5012976;28;20480;-64
2022/06/19 05:53:10;;;;;;;7.60;3.80;;;;;;;;;;5012766;28;20030;-64
2022/06/19 05:55:36;;;;;;;5.40;3.42;;;;;;;;;;5013086;28;20018;-64
2022/06/19 05:58:02;;;;;;;8.57;4.53;;;;;;;;;;5013008;28;20048;-64
2022/06/19 06:00:28;;;;;;;12.52;4.55;;;;;;;;;;5012432;28;20054;-65
2022/06/19 06:02:54;;;;;;;11.00;5.75;;;;;;;;;;5012790;28;20493;-64
2022/06/19 06:05:20;;;;;;;12.40;6.85;;;;;;;;;;5012788;28;20034;-64
2022/06/19 06:07:49;;;;;;;13.98;6.63;;;;;;;;;;5012717;28;20030;-64
2022/06/19 06:10:16;;;;;;;14.43;6.72;;;;;;;;;;5012786;28;20049;-64
2022/06/19 06:12:42;;;;;;;11.07;6.28;;;;;;;;;;5012465;28;20030;-65
2022/06/19 06:15:08;;;;;;;13.48;6.97;;;;;;;;;;5012418;28;20104;-64
2022/06/19 06:17:34;;;;;;;12.23;6.47;;;;;;;;;;5012631;28;20022;-64
2022/06/19 06:20:01;;;;;;;11.82;6.22;;;;;;;;;;5012355;28;20028;-64
2022/06/19 06:22:27;;;;;;;14.93;7.10;;;;;;;;;;5012470;28;20033;-65
2022/06/19 06:24:53;;;;;;;12.32;7.15;;;;;;;;;;5012444;28;20141;-63
2022/06/19 06:27:20;;;;;;;13.23;7.53;;;;;;;;;;5012291;28;20030;-65
2022/06/19 06:29:46;;;;;;;11.40;6.45;;;;;;;;;;5012219;28;20037;-64
2022/06/19 06:32:12;;;;;;;9.88;6.38;;;;;;;;;;5012519;28;20034;-64
2022/06/19 06:34:38;;;;;;;12.15;7.05;;;;;;;;;;5012236;28;20026;-65
2022/06/19 06:37:05;;;;;;;10.90;6.25;;;;;;;;;;5012407;28;20133;-65
2022/06/19 06:39:31;;;;;;;6.45;3.88;;;;;;;;;;5011353;28;20030;-64
2022/06/19 06:41:57;;;;;;;10.45;4.43;;;;;;;;;;5011966;28;20030;-65
2022/06/19 06:44:23;;;;;;;7.75;4.20;;;;;;;;;;5012089;28;20087;-65
2022/06/19 06:46:49;;;;;;;8.35;4.25;;;;;;;;;;5011737;28;20453;-65
2022/06/19 06:49:15;;;;;;;7.70;3.63;;;;;;;;;;5012086;28;20049;-64
2022/06/19 06:51:42;;;;;;;5.90;3.58;;;;;;;;;;5011828;28;20025;-64
2022/06/19 06:54:08;;;;;;;7.53;3.80;;;;;;;;;;5011534;28;20026;-64
2022/06/19 06:56:35;;;;;;;5.78;3.75;;;;;;;;;;5011937;28;20068;-64
2022/06/19 06:59:01;;;;;;;5.93;3.55;;;;;;;;;;5011707;28;20026;-64
2022/06/19 07:01:29;;;;;;;7.28;3.33;;;;;;;;;;5011578;28;20095;-64
2022/06/19 07:03:55;;;;;;;9.13;4.05;;;;;;;;;;5011983;28;20069;-65
2022/06/19 07:06:22;;;;;;;9.18;3.65;;;;;;;;;;5012236;28;20036;-65
2022/06/19 07:08:48;;;;;;;10.63;3.65;;;;;;;;;;5011616;28;20030;-65
2022/06/19 07:11:17;;;;;;;6.57;3.40;;;;;;;;;;5011285;28;20025;-65
2022/06/19 07:13:43;;;;;;;8.55;3.33;;;;;;;;;;5011389;28;20038;-64
2022/06/19 07:16:09;;;;;;;6.13;3.05;;;;;;;;;;5011731;28;20121;-64
2022/06/19 07:18:35;;;;;;;7.43;3.30;;;;;;;;;;5012101;28;20021;-64
2022/06/19 07:21:01;;;;;;;6.15;3.25;;;;;;;;;;5012219;28;20034;-65
2022/06/19 07:23:27;;;;;;;8.48;3.30;;;;;;;;;;5011691;28;20051;-65
2022/06/19 07:25:53;;;;;;;5.40;2.58;;;;;;;;;;5011315;28;20035;-65
2022/06/19 07:28:20;;;;;;;5.63;2.80;;;;;;;;;;5011974;28;20026;-64
2022/06/19 07:30:47;;;;;;;7.20;2.53;;;;;;;;;;5012147;28;20038;-64
2022/06/19 07:33:13;;;;;;;7.45;3.17;;;;;;;;;;5012220;28;20041;-65
2022/06/19 07:35:39;;;;;;;7.28;2.45;;;;;;;;;;5012044;28;20080;-64
2022/06/19 07:38:05;;;;;;;8.02;2.70;;;;;;;;;;5011701;28;20445;-64
2022/06/19 07:40:31;;;;;;;4.55;2.42;;;;;;;;;;5011638;28;20025;-64
2022/06/19 07:42:57;;;;;;;6.30;2.60;;;;;;;;;;5011218;28;20108;-64
2022/06/19 07:45:23;;;;;;;7.32;2.55;;;;;;;;;;5011261;28;20104;-64
2022/06/19 07:50:34;;;;;;;3.78;2.17;;;;;;;;;;5011341;28;20040;-64
2022/06/19 07:53:00;;;;;;;5.28;2.45;;;;;;;;;;5015109;28;20077;-64
2022/06/19 07:55:28;;;;;;;4.63;2.70;;;;;;;;;;5015385;28;20038;-64
2022/06/19 07:57:55;;;;;;;4.50;2.85;;;;;;;;;;5015264;28;20101;-64
2022/06/19 08:00:22;;;;;;;3.97;2.50;;;;;;;;;;5014859;28;20073;-65
2022/06/19 08:02:50;;;;;;;6.35;2.35;;;;;;;;;;5014939;28;20129;-65
2022/06/19 08:05:17;;;;;;;5.15;2.53;;;;;;;;;;5015068;28;20073;-64
2022/06/19 08:07:43;;;;;;;4.13;2.30;;;;;;;;;;5015067;28;20025;-64
2022/06/19 08:10:14;;;;;;;6.65;2.72;;;;;;;;;;5014744;28;20022;-64
2022/06/19 08:12:40;;;;;;;4.60;2.40;;;;;;;;;;5014968;28;20509;-64
2022/06/19 08:15:07;;;;;;;5.10;2.40;;;;;;;;;;5014529;28;20615;-65
2022/06/19 08:17:33;;;;;;;5.60;2.50;;;;;;;;;;5014737;28;20108;-64
2022/06/19 08:20:00;;;;;;;5.15;2.00;;;;;;;;;;5014375;28;20044;-64
2022/06/19 08:22:26;;;;;;;4.93;2.40;;;;;;;;;;5014396;28;20506;-64
2022/06/19 08:24:52;;;;;;;3.97;2.45;;;;;;;;;;5014490;28;20037;-64
2022/06/19 08:27:18;;;;;;;3.97;2.33;;;;;;;;;;5014521;28;20057;-64
2022/06/19 08:29:44;;;;;;;7.15;2.20;;;;;;;;;;5014098;28;20030;-64
2022/06/19 08:32:10;;;;;;;3.45;2.10;;;;;;;;;;5014512;28;20029;-64
2022/06/19 08:34:37;;;;;;;3.72;2.00;;;;;;;;;;5014336;28;20021;-64
2022/06/19 08:37:04;;;;;;;3.92;2.00;;;;;;;;;;5014037;28;20121;-65
2022/06/19 08:39:31;;;;;;;4.95;2.30;;;;;;;;;;5013883;28;20129;-65
2022/06/19 08:42:06;;;;;;;6.18;2.67;;;;;;;;;;5014017;28;20525;-64
2022/06/19 08:44:41;;;;;;;5.05;2.83;;;;;;;;;;5014140;28;20450;-64
2022/06/19 08:47:12;;;;;;;3.85;2.55;;;;;;;;;;5013741;28;20022;-64
2022/06/19 08:49:44;;;;;;;4.50;2.30;;;;;;;;;;5013864;28;20021;-64
2022/06/19 08:52:46;;;;;;;4.63;2.40;;;;;;;;;;5013767;28;20109;-64
2022/06/19 08:55:18;;;;;;;4.25;1.95;;;;;;;;;;4953153;29;20042;-65
2022/06/19 08:57:44;;;;;;;;;;;;;;;;;;4953812;29;20039;-64
2022/06/19 09:00:10;;;;;;;2.47;1.77;;;;;;;;;;4952588;28;19910;-64
2022/06/19 09:02:36;;;;;;;4.28;2.08;;;;;;;;;;4952261;28;20043;-64
2022/06/19 09:05:38;;;;;;;3.80;1.92;;;;;;;;;;4953233;29;20151;-65
2022/06/19 09:08:16;;;;;;;2.97;1.80;;;;;;;;;;4953056;29;20114;-64
2022/06/19 09:10:48;;;;;;;4.00;2.35;;;;;;;;;;4952908;29;20039;-64
2022/06/19 09:13:32;;;;;;;5.15;2.35;;;;;;;;;;4953203;29;20182;-64
2022/06/19 09:16:01;;;;;;;4.25;2.00;;;;;;;;;;4952813;29;20043;-64
2022/06/19 09:18:35;;;;;;;4.95;2.00;;;;;;;;;;4952869;29;20395;-64
2022/06/19 09:21:04;;;;;;;3.00;2.00;;;;;;;;;;4952025;29;20066;-64
2022/06/19 09:23:39;;;;;;;4.32;2.30;;;;;;;;;;4952311;29;20054;-64
2022/06/19 09:26:24;;;;;;;4.35;2.20;;;;;;;;;;4952567;29;20039;-64
2022/06/19 09:28:56;;;;;;;5.53;2.83;;;;;;;;;;4973894;28;20042;-64
2022/06/19 09:31:31;;;;;;;5.15;2.70;;;;;;;;;;5013047;28;20108;-64
2022/06/19 09:34:04;;;;;;;3.45;2.28;;;;;;;;;;5013162;28;20045;-65
2022/06/19 09:37:05;;;;;;;3.97;2.42;;;;;;;;;;5012906;28;20071;-63
2022/06/19 09:39:31;;;;;;;4.43;1.95;;;;;;;;;;4952356;29;20035;-65
2022/06/19 09:41:57;;;;;;;2.95;2.00;;;;;;;;;;4952393;29;20046;-65
2022/06/19 09:44:26;;;;;;;6.95;2.53;;;;;;;;;;4952170;29;20502;-65
2022/06/19 09:46:54;;;;;;;6.95;2.45;;;;;;;;;;4952198;29;20035;-65
2022/06/19 09:49:23;;;;;;;4.60;2.20;;;;;;;;;;4952211;29;20116;-65
2022/06/19 09:52:02;;;;;;;4.68;2.05;;;;;;;;;;4952207;29;20570;-66
2022/06/19 09:54:39;;;;;;;4.57;1.83;;;;;;;;;;4951958;29;20110;-65
2022/06/19 09:57:10;;;;;;;2.55;1.83;;;;;;;;;;4952434;29;20043;-66
2022/06/19 09:59:55;;;;;;;4.15;1.98;;;;;;;;;;4951919;28;20151;-65
2022/06/19 10:02:23;;;;;;;4.78;2.30;;;;;;;;;;4952147;29;20086;-66
2022/06/19 10:04:55;;;;;;;5.18;2.30;;;;;;;;;;4952092;29;20101;-65
2022/06/19 10:07:30;;;;;;;3.05;1.80;;;;;;;;;;4952025;29;20154;-65
2022/06/19 10:09:59;;;;;;;4.82;1.80;;;;;;;;;;4951747;29;20098;-65
2022/06/19 10:12:33;;;;;;;3.25;1.90;;;;;;;;;;4951946;29;20114;-65
2022/06/19 10:15:02;;;;;;;3.05;2.10;;;;;;;;;;4980136;28;20042;-66
2022/06/19 10:17:29;;;;;;;4.00;2.03;;;;;;;;;;5012553;28;20038;-65
2022/06/19 10:19:58;;;;;;;3.10;2.10;;;;;;;;;;5012370;28;20037;-65
2022/06/19 10:22:31;;;;;;;3.75;2.20;;;;;;;;;;5012250;28;20038;-66
2022/06/19 10:24:57;;;;;;;2.72;2.05;;;;;;;;;;5012256;28;20068;-65
2022/06/19 10:27:42;;;;;;;3.10;1.85;;;;;;;;;;5012177;28;20424;-65
2022/06/19 10:30:15;;;;;;;3.53;2.28;;;;;;;;;;5011771;28;20026;-65
2022/06/19 10:32:44;;;;;;;3.42;2.17;;;;;;;;;;5011840;28;20061;-65
2022/06/19 10:35:15;;;;;;;7.90;2.47;;;;;;;;;;5012139;28;20105;-65
2022/06/19 10:37:41;;;;;;;3.22;2.10;;;;;;;;;;5011196;28;20359;-65
2022/06/19 10:40:26;;;;;;;3.47;2.30;;;;;;;;;;5011962;28;20037;-66
2022/06/19 10:42:52;;;;;;;4.53;2.25;;;;;;;;;;5011932;28;20040;-65
2022/06/19 10:45:18;;;;;;;4.03;2.10;;;;;;;;;;5011882;28;20029;-65
2022/06/19 10:47:44;;;;;;;2.83;1.98;;;;;;;;;;5012105;28;20367;-65
2022/06/19 10:50:32;;;;;;;5.88;2.20;;;;;;;;;;5011840;28;20115;-64
2022/06/19 10:53:17;;;;;;;4.55;2.67;;;;;;;;;;5011955;28;20409;-63
2022/06/19 10:55:57;;;;;;;4.78;2.92;;;;;;;;;;5012001;28;20045;-65
2022/06/19 10:58:25;;;;;;;7.07;2.58;;;;;;;;;;5012005;28;20034;-65
2022/06/19 11:00:53;;;;;;;5.15;1.85;;;;;;;;;;5011309;28;20050;-65
2022/06/19 11:06:19;;;;;;;3.47;2.38;;;;;;;;;;5011854;28;20040;-66
2022/06/19 11:08:46;;;;;;;4.93;2.50;;;;;;;;;;5011887;28;20058;-66
2022/06/19 11:11:17;;;;;;;3.92;2.30;;;;;;;;;;5011635;28;20363;-65
2022/06/19 11:14:01;;;;;;;4.75;2.22;;;;;;;;;;5011621;28;20470;-65
2022/06/19 11:16:28;;;;;;;4.63;2.03;;;;;;;;;;5011536;28;20030;-65
2022/06/19 11:18:54;;;;;;;5.32;2.50;;;;;;;;;;5011670;28;20084;-65
2022/06/19 11:21:23;;;;;;;3.88;2.63;;;;;;;;;;5011668;28;20029;-65
2022/06/19 11:23:50;;;;;;;5.32;2.35;;;;;;;;;;5011542;28;20042;-65
2022/06/19 11:26:16;;;;;;;7.88;2.28;;;;;;;;;;5011124;28;20018;-63
2022/06/19 11:28:51;;;;;;;6.38;2.28;;;;;;;;;;5011624;28;20026;-64
2022/06/19 11:31:29;;;;;;;5.28;2.40;;;;;;;;;;5011467;28;20060;-65
2022/06/19 11:33:57;;;;;;;4.28;2.50;;;;;;;;;;5010623;28;20042;-64
2022/06/19 11:36:35;;;;;;;4.90;2.38;;;;;;;;;;5010954;28;20149;-64
2022/06/19 11:39:03;;;;;;;5.82;2.45;;;;;;;;;;5011140;28;20444;-64
2022/06/19 11:41:35;;;;;;;3.22;2.70;;;;;;;;;;5011235;28;20029;-64
2022/06/19 11:44:07;;;;;;;4.93;2.80;;;;;;;;;;5011227;28;20509;-64
2022/06/19 11:46:42;;;;;;;4.10;2.78;;;;;;;;;;5010991;28;20049;-64
2022/06/19 11:49:19;;;;;;;4.15;2.20;;;;;;;;;;5010945;28;20029;-64
2022/06/19 11:51:46;;;;;;;5.00;2.28;;;;;;;;;;5010968;28;20482;-64
2022/06/19 11:54:14;;;;;;;5.18;2.25;;;;;;;;;;5011078;28;20041;-64
2022/06/19 11:56:41;;;;;;;3.67;2.30;;;;;;;;;;5011251;28;20088;-65
2022/06/19 11:59:27;;;;;;;4.13;2.47;;;;;;;;;;5011160;28;20087;-64
2022/06/19 12:01:53;;;;;;;4.45;2.40;;;;;;;;;;5010603;28;20049;-64
2022/06/19 12:04:24;;;;;;;5.22;2.20;;;;;;;;;;5011352;28;20050;-63
2022/06/19 12:06:54;;;;;;;3.75;2.13;;;;;;;;;;5011084;28;20517;-64
2022/06/19 12:09:23;;;;;;;4.00;2.47;;;;;;;;;;5011226;28;20116;-64
2022/06/19 12:12:05;;;;;;;5.30;2.30;;;;;;;;;;5011090;28;20497;-65
2022/06/19 12:14:33;;;;;;;3.22;2.15;;;;;;;;;;5010962;28;20030;-63
2022/06/19 12:17:28;;;;;;;6.43;2.40;;;;;;;;;;5010816;28;20553;-65
2022/06/19 12:19:58;;;;;;;3.90;2.50;;;;;;;;;;4998379;28;20041;-64
2022/06/19 12:22:47;;;;;;;4.53;2.50;;;;;;;;;;5010631;28;20029;-65
2022/06/19 12:25:25;;;;;;;3.55;2.75;;;;;;;;;;4950132;29;20087;-66
2022/06/19 12:27:55;;;;;;;4.07;2.67;;;;;;;;;;4949942;29;20558;-65
2022/06/19 12:30:28;;;;;;;3.10;2.05;;;;;;;;;;4949923;29;20510;-65
2022/06/19 12:32:56;;;;;;;3.67;2.50;;;;;;;;;;4950241;29;20043;-66
2022/06/19 12:35:48;;;;;;;4.55;2.05;;;;;;;;;;4949881;28;20090;-65
2022/06/19 12:38:15;;;;;;;3.28;2.25;;;;;;;;;;4947738;28;20121;-65
2022/06/19 12:40:56;;;;;;;5.78;2.20;;;;;;;;;;4953564;29;20034;-65
2022/06/19 12:43:22;;;;;;;3.67;2.20;;;;;;;;;;4953581;29;20047;-63
2022/06/19 12:45:52;;;;;;;6.43;2.22;;;;;;;;;;4953240;29;20078;-64
2022/06/19 12:48:37;;;;;;;3.17;1.98;;;;;;;;;;4953500;29;20035;-65
2022/06/19 12:51:12;;;;;;;3.30;2.28;;;;;;;;;;4953376;29;20597;-63
2022/06/19 12:53:41;;;;;;;4.60;2.30;;;;;;;;;;4953502;29;20118;-63
2022/06/19 12:56:16;;;;;;;4.63;2.40;;;;;;;;;;4953582;29;20043;-63
2022/06/19 12:58:42;;;;;;;4.43;2.42;;;;;;;;;;4953513;29;20035;-65
2022/06/19 13:01:15;;;;;;;3.20;2.10;;;;;;;;;;4956315;28;20059;-64
2022/06/19 13:03:44;;;;;;;4.53;2.00;;;;;;;;;;5013924;28;20104;-66
2022/06/19 13:06:25;;;;;;;4.43;2.30;;;;;;;;;;5013690;28;20022;-63
2022/06/19 13:08:51;;;;;;;5.20;2.30;;;;;;;;;;5014011;28;20037;-64
2022/06/19 13:11:47;;;;;;;4.78;2.63;;;;;;;;;;5013641;28;20018;-65
2022/06/19 13:14:19;;;;;;;6.32;2.63;;;;;;;;;;5000760;28;20069;-66
2022/06/19 13:16:46;;;;;;;5.22;2.72;;;;;;;;;;5013312;28;20037;-64
2022/06/19 13:19:30;;;;;;;3.72;2.13;;;;;;;;;;5013644;28;20022;-65
2022/06/19 13:22:03;;;;;;;3.28;2.05;;;;;;;;;;5013550;28;20495;-64
2022/06/19 13:24:40;;;;;;;2.50;1.70;;;;;;;;;;5012614;28;20092;-64
2022/06/19 13:27:17;;;;;;;4.60;1.92;;;;;;;;;;5013486;28;20541;-63
2022/06/19 13:29:51;;;;;;;3.50;1.80;;;;;;;;;;5013185;28;20052;-64
2022/06/19 13:32:22;;;;;;;3.17;1.95;;;;;;;;;;5013557;28;20618;-64
2022/06/19 13:34:54;;;;;;;3.45;2.17;;;;;;;;;;5013331;28;20049;-64
2022/06/19 13:37:20;;;;;;;;;;;;;;;;;;5013437;28;20068;-64
2022/06/19 13:39:49;;;;;;;3.58;1.70;;;;;;;;;;5013154;28;19948;-64
2022/06/19 13:42:27;;;;;;;3.15;1.80;;;;;;;;;;5012704;28;20033;-64
2022/06/19 13:44:56;;;;;;;3.00;2.00;;;;;;;;;;5012680;28;20029;-65
2022/06/19 13:47:27;;;;;;;3.80;2.25;;;;;;;;;;5012713;28;20030;-64
2022/06/19 13:50:14;;;;;;;2.03;1.80;;;;;;;;;;5012529;28;20493;-64
2022/06/19 13:52:52;;;;;;;2.90;1.92;;;;;;;;;;5012798;28;20029;-64
2022/06/19 13:55:20;;;;;;;4.00;1.90;;;;;;;;;;5012974;28;20133;-64
2022/06/19 13:57:52;;;;;;;2.92;2.00;;;;;;;;;;5013186;28;20097;-63
2022/06/19 14:00:21;;;;;;;2.83;1.60;;;;;;;;;;5012457;28;20060;-64
2022/06/19 14:02:47;;;;;;;2.67;1.90;;;;;;;;;;5012820;28;20038;-63
2022/06/19 14:05:43;;;;;;;2.30;1.70;;;;;;;;;;5012817;28;20122;-64
2022/06/19 14:08:21;;;;;;;2.55;1.83;;;;;;;;;;4952065;29;20067;-64
2022/06/19 14:10:51;;;;;;;3.53;2.40;;;;;;;;;;4952086;29;20070;-63
2022/06/19 14:13:28;;;;;;;3.63;1.98;;;;;;;;;;4936134;29;20050;-64
2022/06/19 14:15:56;;;;;;;2.05;1.60;;;;;;;;;;4951830;29;20423;-65
2022/06/19 14:18:28;;;;;;;3.45;1.70;;;;;;;;;;4951722;29;20053;-64
2022/06/19 14:21:12;;;;;;;3.33;1.70;;;;;;;;;;4951762;29;20106;-63
2022/06/19 14:23:49;;;;;;;3.08;2.05;;;;;;;;;;4951634;29;20520;-63
2022/06/19 14:26:33;;;;;;;3.63;2.10;;;;;;;;;;4951610;29;20118;-63
2022/06/19 14:29:09;;;;;;;2.45;1.88;;;;;;;;;;4951731;29;20023;-63
2022/06/19 14:31:36;;;;;;;4.88;2.15;;;;;;;;;;4951729;29;20062;-63
2022/06/19 14:34:02;;;;;;;3.08;2.05;;;;;;;;;;4951818;29;20047;-63
2022/06/19 14:36:30;;;;;;;3.28;2.00;;;;;;;;;;4951587;29;20031;-63
2022/06/19 14:38:57;;;;;;;3.58;2.00;;;;;;;;;;4951164;29;20040;-63
2022/06/19 14:41:29;;;;;;;4.30;2.25;;;;;;;;;;4951435;29;20039;-66
2022/06/19 14:43:57;;;;;;;3.38;1.67;;;;;;;;;;4966222;28;20058;-64
2022/06/19 14:46:33;;;;;;;3.13;2.05;;;;;;;;;;5011816;28;20102;-65
2022/06/19 14:49:05;;;;;;;3.83;1.73;;;;;;;;;;5011854;28;20489;-66
2022/06/19 14:51:50;;;;;;;2.22;1.77;;;;;;;;;;5012069;28;20389;-64
2022/06/19 14:54:23;;;;;;;3.03;2.00;;;;;;;;;;5011911;28;20025;-63
2022/06/19 14:57:06;;;;;;;2.63;1.65;;;;;;;;;;5012094;28;20076;-65
2022/06/19 14:59:36;;;;;;;2.00;1.70;;;;;;;;;;5011811;28;20029;-65
2022/06/19 15:02:03;;;;;;;5.32;2.25;;;;;;;;;;5010842;28;20056;-65
2022/06/19 15:04:33;;;;;;;2.80;2.05;;;;;;;;;;5011730;28;20034;-65